Pagina principale
METAR-TAF:

METAR-TAF

Aeroporti :

Sugh el Giumaa

Tripoli, Libia

latitudine: 32-54N, longitudine: 13-17E, altezza: 11 m

METAR: mancante

Ora: 06:56 (04:56 UTC)

Previsione

Il bollettino è stato emesso 23 ore e 56 minuti fa, alle 05:00 UTC
Previsione valida dal 18 alle 06 UTC al 19 alle 06 UTC
Vento 2 kt da direzioni variabili
Visibilità: 8000 m
Evoluzione graduale
dal 18 alle 10 UTC al 18 alle 12 UTC
Vento 10 kt da est
Visibilità 10 km o più
nessuna nube inferiore a 1500 m e nessun cumulonembo
Evoluzione graduale
dal 19 alle 02 UTC al 19 alle 04 UTC
Vento 10 kt da sud/sud-est

TAF: HLLM 180500Z 1806/1906 VRB02KT 8000 NSC BECMG 1810/1812 09010KT CAVOK BECMG 1902/1904 16010KT

Osservazioni e previsioni meteorologiche di più di 4000 aeroporti (messaggi METAR e TAF).

Le stazioni disponibili sono rappresentate dai dischi gialli e rossi sulla carta.

Puntare il mouse per vedere il nome della stazione.

Clicca sopra per visualizzare le osservazioni e previsioni meteorologiche.

Per cambiare la mappa : fare clic sui pulsanti verdi con una croce nera per ingrandire, il pulsante verde con un trattino per diminuire, o sulla freccia verde per le mappe adiacenti.


METAR-TAF: